createdAt,value
2022-11-20T11:04:44.142Z,92.46
2022-11-20T11:05:53.280Z,91.68
2022-11-20T11:07:06.371Z,89.91
2022-11-20T11:08:20.396Z,86.79
2022-11-20T11:09:33.096Z,83.12
2022-11-20T11:11:00.102Z,79.67
2022-11-20T11:12:07.250Z,82.44
2022-11-20T11:13:20.920Z,83.97
2022-11-20T11:14:25.438Z,82.91
2022-11-20T11:15:39.285Z,84.54
2022-11-20T11:16:52.256Z,84.18
2022-11-20T11:17:53.743Z,85.42
2022-11-20T11:19:12.563Z,86.77
2022-11-20T11:20:19.710Z,86.07
2022-11-20T11:21:25.047Z,87.17
2022-11-20T11:22:28.819Z,87.42
2022-11-20T11:23:32.899Z,87.75
2022-11-20T11:24:42.142Z,87.47
2022-11-20T11:30:21.559Z,83.77
2022-11-20T11:31:31.212Z,79.94
2022-11-20T11:32:32.578Z,77.54
2022-11-20T11:33:36.871Z,78.43
2022-11-20T11:34:38.300Z,74.85
2022-11-20T11:35:51.941Z,72.50
2022-11-20T11:36:58.372Z,70.15
2022-11-20T11:38:13.381Z,70.99
2022-11-20T11:39:20.985Z,70.81
2022-11-20T11:40:24.973Z,73.56
2022-11-20T11:41:34.331Z,69.56
2022-11-20T11:42:35.847Z,66.86
2022-11-20T11:43:57.483Z,65.76
2022-11-20T11:45:07.114Z,64.07
2022-11-20T11:46:20.721Z,65.02
2022-11-20T11:47:44.474Z,67.39
2022-11-20T11:48:57.078Z,64.36
2022-11-20T11:50:10.790Z,63.74
2022-11-20T11:51:12.206Z,62.97
2022-11-20T11:52:20.371Z,62.64
2022-11-20T11:53:24.577Z,62.09
2022-11-20T11:54:33.399Z,61.64
2022-11-20T11:55:41.497Z,62.08
2022-11-20T11:56:43.489Z,60.80
2022-11-20T11:58:02.890Z,62.35
2022-11-20T11:59:13.235Z,62.27
2022-11-20T12:00:17.106Z,63.00
2022-11-20T12:01:33.772Z,64.51
2022-11-20T12:02:57.377Z,65.80
2022-11-20T12:04:13.082Z,65.83
2022-11-20T12:05:20.551Z,65.08
2022-11-20T12:06:24.935Z,64.88
2022-11-20T12:07:47.887Z,63.70
2022-11-20T12:08:56.737Z,63.51
2022-11-20T12:09:59.484Z,63.71
2022-11-20T12:11:25.127Z,63.15
2022-11-20T12:12:40.200Z,62.82
2022-11-20T12:14:04.222Z,62.02
2022-11-20T12:15:11.812Z,60.94
2022-11-20T12:16:16.290Z,60.75
2022-11-20T12:17:18.776Z,61.18
2022-11-20T12:18:22.662Z,59.92
2022-11-20T12:19:24.946Z,60.58
2022-11-20T12:20:46.052Z,61.52
2022-11-20T12:21:50.865Z,62.25
2022-11-20T12:23:00.703Z,62.33
2022-11-20T12:24:23.109Z,61.60
2022-11-20T12:25:35.507Z,63.07
2022-11-20T12:26:39.622Z,65.37
2022-11-20T12:27:53.162Z,67.12
2022-11-20T12:29:10.623Z,66.00
2022-11-20T12:30:20.657Z,63.52
2022-11-20T12:31:49.824Z,62.50
2022-11-20T12:33:28.642Z,62.37
2022-11-20T12:34:32.953Z,64.59
2022-11-20T12:36:06.861Z,65.21
2022-11-20T12:37:23.706Z,66.60
2022-11-20T12:38:37.261Z,63.96
2022-11-20T12:39:53.857Z,63.72
2022-11-20T12:41:37.018Z,64.76
2022-11-20T12:43:10.996Z,68.23
2022-11-20T12:44:49.521Z,69.15
2022-11-20T12:46:23.697Z,70.31
2022-11-20T12:47:46.226Z,68.43
2022-11-20T12:48:53.668Z,70.10
2022-11-20T12:50:14.054Z,67.92
2022-11-20T12:51:43.716Z,69.13
2022-11-20T12:53:01.270Z,69.64
2022-11-20T12:54:36.045Z,69.15
2022-11-20T12:55:49.501Z,67.51
2022-11-20T12:57:48.427Z,67.25
2022-11-20T12:59:24.936Z,64.67
2022-11-20T13:00:27.049Z,63.10
2022-11-20T13:01:49.142Z,62.69
2022-11-20T13:03:08.720Z,62.28
2022-11-20T13:04:38.879Z,62.45
2022-11-20T13:06:01.840Z,61.50
2022-11-20T13:07:12.974Z,63.67
2022-11-20T13:08:39.695Z,67.66
2022-11-20T13:09:47.923Z,68.43
2022-11-20T13:11:03.682Z,67.72
2022-11-20T13:12:30.088Z,66.14
2022-11-20T13:13:57.577Z,67.80
2022-11-20T13:15:18.765Z,68.40
2022-11-20T13:16:23.163Z,68.82
2022-11-20T13:17:35.587Z,67.81
2022-11-20T13:18:42.592Z,66.11
2022-11-20T13:19:50.781Z,66.26
2022-11-20T13:20:52.675Z,67.62
2022-11-20T13:21:54.177Z,68.06
2022-11-20T13:22:58.214Z,68.29
2022-11-20T13:24:27.188Z,69.38
2022-11-20T13:25:36.969Z,70.15
2022-11-20T13:26:38.408Z,70.64
2022-11-20T13:27:48.925Z,71.95
2022-11-20T13:29:22.996Z,71.75
2022-11-20T13:30:26.896Z,72.30
2022-11-20T13:31:36.538Z,72.43
2022-11-20T13:32:48.539Z,71.73
2022-11-20T13:33:55.571Z,72.67
2022-11-20T13:34:59.787Z,72.98
2022-11-20T13:36:07.263Z,73.58
2022-11-20T13:37:35.370Z,73.05
2022-11-20T13:38:52.300Z,74.14
2022-11-20T13:39:53.682Z,74.31
2022-11-20T13:40:58.005Z,74.58
2022-11-20T13:42:24.745Z,74.65
2022-11-20T13:43:45.605Z,74.82
2022-11-20T13:44:56.201Z,74.74
2022-11-20T13:46:01.814Z,74.97
2022-11-20T13:47:03.300Z,74.66
2022-11-20T13:48:22.746Z,75.08
2022-11-20T13:49:55.397Z,75.29
2022-11-20T13:50:56.705Z,75.75
2022-11-20T13:52:13.809Z,75.75
2022-11-20T13:53:33.935Z,74.20
2022-11-20T13:54:44.768Z,74.91
2022-11-20T13:56:00.653Z,74.68
2022-11-20T13:57:16.628Z,74.09
2022-11-20T13:58:20.856Z,74.54
2022-11-20T13:59:25.152Z,74.29
2022-11-20T14:00:27.290Z,75.13
2022-11-20T14:01:35.533Z,74.86
2022-11-20T14:02:37.206Z,74.80
2022-11-20T14:05:02.706Z,74.92
2022-11-20T14:06:06.641Z,75.43
2022-11-20T14:07:08.233Z,75.37
2022-11-20T14:08:21.682Z,75.07
2022-11-20T14:09:36.120Z,73.40
2022-11-20T14:10:40.211Z,74.16
2022-11-20T14:11:48.843Z,73.99
2022-11-20T14:12:51.651Z,74.19
2022-11-20T14:13:55.192Z,72.91
2022-11-20T14:14:57.095Z,72.65
2022-11-20T14:15:59.255Z,72.41
2022-11-20T14:17:21.938Z,72.63
2022-11-20T14:18:23.371Z,72.87
2022-11-20T14:19:29.335Z,73.03
2022-11-20T14:20:32.253Z,72.72
2022-11-20T14:21:33.687Z,73.20
2022-11-20T14:22:35.232Z,73.35
2022-11-20T14:23:36.700Z,73.03
2022-11-20T14:24:38.244Z,73.60
2022-11-20T14:25:47.695Z,73.34
2022-11-20T14:26:49.267Z,72.54
2022-11-20T14:27:57.224Z,72.16
2022-11-20T14:28:59.211Z,72.05
2022-11-20T14:30:02.243Z,70.67
2022-11-20T14:31:03.673Z,68.91
2022-11-20T14:32:05.812Z,68.51
2022-11-20T14:33:07.260Z,68.60
2022-11-20T14:34:18.126Z,69.18
2022-11-20T14:35:26.433Z,69.72
2022-11-20T14:36:32.067Z,70.20
2022-11-20T14:37:37.683Z,70.81
2022-11-20T14:38:39.424Z,70.95
2022-11-20T14:39:50.262Z,71.14
2022-11-20T14:40:51.760Z,71.83
2022-11-20T14:41:54.380Z,71.69
2022-11-20T14:42:56.853Z,71.87
2022-11-20T14:44:00.019Z,71.91
2022-11-20T14:45:02.146Z,72.55
2022-11-20T14:46:06.607Z,72.08
2022-11-20T14:47:13.772Z,72.13
2022-11-20T14:48:16.580Z,72.52
2022-11-20T14:49:18.285Z,72.91
2022-11-20T14:50:23.804Z,73.04
2022-11-20T14:51:34.316Z,73.28
2022-11-20T14:52:35.664Z,73.28
2022-11-20T14:53:37.139Z,73.48
2022-11-20T14:54:46.863Z,73.99
2022-11-20T14:56:00.283Z,73.78
2022-11-20T14:57:04.472Z,73.96
2022-11-20T14:58:23.628Z,73.96
2022-11-20T14:59:33.280Z,74.40
2022-11-20T15:00:36.238Z,74.63
2022-11-20T15:01:38.507Z,74.80
2022-11-20T15:02:42.798Z,75.26
2022-11-20T15:03:44.292Z,74.84
2022-11-20T15:05:00.147Z,75.45
2022-11-20T15:06:02.383Z,75.32
2022-11-20T15:07:03.925Z,76.03
2022-11-20T15:08:10.081Z,76.14
2022-11-20T15:09:15.652Z,76.07
2022-11-20T15:10:19.777Z,75.66
2022-11-20T15:11:32.063Z,76.32
2022-11-20T15:12:36.830Z,75.90
2022-11-20T15:13:39.927Z,76.27
2022-11-20T15:14:41.283Z,76.60
2022-11-20T15:15:52.998Z,76.68
2022-11-20T15:16:55.212Z,77.13
2022-11-20T15:17:56.827Z,77.13
2022-11-20T15:18:58.345Z,77.07
2022-11-20T15:20:02.190Z,77.33
2022-11-20T15:21:07.309Z,77.17
2022-11-20T15:22:19.900Z,78.06
2022-11-20T15:23:21.325Z,77.49
2022-11-20T15:24:26.218Z,77.63
2022-11-20T15:25:29.067Z,77.58
2022-11-20T15:26:30.608Z,77.71
2022-11-20T15:27:32.041Z,77.90
2022-11-20T15:28:51.018Z,78.02
2022-11-20T15:29:52.628Z,78.26
